Time;durP1;ratioP1;P1;durP2;ratioP2;P2;SDS_P1;SDS_P2;PMS_P1;PMS_P2;Temp;Humidity;BMP_temperature;BMP_pressure;BME280_temperature;BME280_humidity;BME280_pressure;Samples;Min_cycle;Max_cycle;Signal;HPM_P1;HPM_P2
2023/04/07 00:02:16;;;;;;;10.87;9.43;;;8.40;99.90;;;;;;5073861;28;20598;-66
2023/04/07 00:04:41;;;;;;;16.00;9.87;;;8.40;99.90;;;;;;5073425;28;20202;-66
2023/04/07 00:07:07;;;;;;;18.33;10.47;;;8.40;99.90;;;;;;5073642;28;20243;-66
2023/04/07 00:09:32;;;;;;;13.07;9.33;;;8.40;99.90;;;;;;5071392;28;20189;-65
2023/04/07 00:12:01;;;;;;;14.13;9.80;;;8.40;99.90;;;;;;5072364;28;20174;-66
2023/04/07 00:14:27;;;;;;;10.77;9.23;;;8.40;99.90;;;;;;5072960;28;20174;-66
2023/04/07 00:16:53;;;;;;;11.93;10.33;;;8.40;99.90;;;;;;5073467;28;20238;-66
2023/04/07 00:19:18;;;;;;;13.57;9.50;;;8.50;99.90;;;;;;5073022;28;20174;-66
2023/04/07 00:21:44;;;;;;;13.90;11.20;;;8.50;99.90;;;;;;5073184;28;20312;-66
2023/04/07 00:24:10;;;;;;;12.93;9.13;;;8.50;99.90;;;;;;5073365;28;20170;-67
2023/04/07 00:26:36;;;;;;;11.43;10.00;;;8.50;99.90;;;;;;5071548;28;20213;-66
2023/04/07 00:29:01;;;;;;;10.27;9.07;;;8.50;99.90;;;;;;5073423;28;20209;-66
2023/04/07 00:31:27;;;;;;;10.63;9.53;;;8.60;99.90;;;;;;5072469;28;20186;-66
2023/04/07 00:33:52;;;;;;;11.60;9.77;;;8.60;99.90;;;;;;5072076;28;20190;-66
2023/04/07 00:36:18;;;;;;;10.53;9.47;;;8.60;99.90;;;;;;5072560;28;20228;-66
2023/04/07 00:38:44;;;;;;;13.50;9.13;;;8.60;99.90;;;;;;5072939;28;20620;-66
2023/04/07 00:41:09;;;;;;;13.20;9.37;;;8.60;99.90;;;;;;5072732;28;20208;-66
2023/04/07 00:43:35;;;;;;;10.37;9.27;;;8.70;99.90;;;;;;5072311;28;20185;-66
2023/04/07 00:46:01;;;;;;;11.50;8.70;;;8.70;99.90;;;;;;5072552;28;20233;-67
2023/04/07 00:48:26;;;;;;;11.13;10.03;;;8.70;99.90;;;;;;5072887;28;20589;-66
2023/04/07 00:50:52;;;;;;;9.27;8.47;;;8.80;99.90;;;;;;5072202;28;20186;-66
2023/04/07 00:53:19;;;;;;;9.50;8.60;;;8.80;99.90;;;;;;5071450;28;20178;-66
2023/04/07 00:55:45;;;;;;;9.83;8.83;;;8.80;99.90;;;;;;5072292;28;20209;-66
2023/04/07 00:58:10;;;;;;;9.60;8.50;;;8.70;99.90;;;;;;5071507;28;20175;-66
2023/04/07 01:00:45;;;;;;;11.03;9.60;;;8.70;99.90;;;;;;5072227;28;20548;-66
2023/04/07 01:03:29;;;;;;;12.30;9.77;;;8.70;99.90;;;;;;5072689;28;20256;-66
2023/04/07 01:06:00;;;;;;;11.57;9.97;;;8.70;99.90;;;;;;5072257;28;20650;-66
2023/04/07 01:08:34;;;;;;;14.53;10.53;;;8.70;99.90;;;;;;5072492;28;20174;-66
2023/04/07 01:11:18;;;;;;;13.27;10.87;;;8.70;99.90;;;;;;5071772;28;20474;-66
2023/04/07 01:13:53;;;;;;;17.87;10.57;;;8.70;99.90;;;;;;5072328;28;20166;-66
2023/04/07 01:16:23;;;;;;;11.10;8.90;;;8.80;99.90;;;;;;5072027;28;20201;-66
2023/04/07 01:18:53;;;;;;;11.80;10.37;;;8.80;99.90;;;;;;5072295;28;20182;-66
2023/04/07 01:21:21;;;;;;;13.13;10.90;;;8.80;99.90;;;;;;5071764;28;20288;-66
2023/04/07 01:24:23;;;;;;;16.00;11.77;;;8.80;99.90;;;;;;5072172;28;20170;-65
2023/04/07 01:26:50;;;;;;;15.23;11.90;;;8.80;99.90;;;;;;5071944;28;20553;-66
2023/04/07 01:29:40;;;;;;;16.80;12.63;;;8.80;99.90;;;;;;5071713;28;20170;-66
2023/04/07 01:32:08;;;;;;;19.27;12.87;;;8.80;99.90;;;;;;5071308;28;20635;-66
2023/04/07 01:34:37;;;;;;;16.43;11.67;;;8.80;99.90;;;;;;5070669;28;20178;-66
2023/04/07 01:37:03;;;;;;;20.23;12.73;;;8.80;99.90;;;;;;5070872;28;20194;-66
2023/04/07 01:39:30;;;;;;;17.37;13.10;;;8.80;99.90;;;;;;5071509;28;20527;-66
2023/04/07 01:41:56;;;;;;;20.87;13.03;;;8.80;99.90;;;;;;5071335;28;20685;-66
2023/04/07 01:44:24;;;;;;;18.13;14.60;;;8.80;99.90;;;;;;5071442;28;20177;-66
2023/04/07 01:46:49;;;;;;;19.77;14.33;;;8.80;99.90;;;;;;5071088;28;20194;-67
2023/04/07 01:49:16;;;;;;;20.57;12.80;;;8.80;99.90;;;;;;5070728;28;20514;-66
2023/04/07 01:51:43;;;;;;;23.87;14.40;;;8.80;99.90;;;;;;5057038;28;20175;-67
2023/04/07 01:54:09;;;;;;;19.90;13.23;;;8.80;99.90;;;;;;5051468;28;20167;-66
2023/04/07 01:56:35;;;;;;;19.73;12.70;;;8.80;99.90;;;;;;5051605;28;20186;-66
2023/04/07 01:59:00;;;;;;;19.97;13.90;;;8.80;99.90;;;;;;5056442;28;20636;-66
2023/04/07 02:01:26;;;;;;;18.83;13.77;;;8.80;99.90;;;;;;5070902;28;20185;-66
2023/04/07 02:04:21;;;;;;;19.93;14.07;;;8.80;99.90;;;;;;5071100;28;20561;-67
2023/04/07 02:06:54;;;;;;;22.80;14.03;;;8.80;99.90;;;;;;5071565;28;20225;-67
2023/04/07 02:09:23;;;;;;;27.00;15.07;;;8.80;99.90;;;;;;5070824;28;20221;-66
2023/04/07 02:11:50;;;;;;;23.37;13.73;;;8.80;99.90;;;;;;5071232;28;20166;-66
2023/04/07 02:14:16;;;;;;;22.57;14.00;;;8.80;99.90;;;;;;5071116;28;20222;-66
2023/04/07 02:16:44;;;;;;;19.47;13.53;;;8.70;99.90;;;;;;5071210;28;20323;-66
2023/04/07 02:19:10;;;;;;;27.47;16.07;;;8.70;99.90;;;;;;5070813;28;20636;-66
2023/04/07 02:21:37;;;;;;;21.33;13.83;;;8.70;99.90;;;;;;5071152;28;20177;-66
2023/04/07 02:24:06;;;;;;;18.13;12.17;;;8.80;99.90;;;;;;5071375;28;20311;-66
2023/04/07 02:26:35;;;;;;;22.10;13.90;;;8.70;99.90;;;;;;5071126;28;20220;-66
2023/04/07 02:29:02;;;;;;;27.13;12.53;;;8.70;99.90;;;;;;5071440;28;20252;-66
2023/04/07 02:31:28;;;;;;;24.53;14.30;;;8.70;99.90;;;;;;5070427;28;20648;-66
2023/04/07 02:33:53;;;;;;;20.23;14.57;;;8.70;99.90;;;;;;5071403;28;20254;-66
2023/04/07 02:36:19;;;;;;;23.37;15.90;;;8.70;99.90;;;;;;5070851;28;20198;-66
2023/04/07 02:38:44;;;;;;;26.03;15.17;;;8.70;99.90;;;;;;5071362;28;20178;-66
2023/04/07 02:41:10;;;;;;;19.97;15.40;;;8.70;99.90;;;;;;5070719;28;20178;-67
2023/04/07 02:43:36;;;;;;;22.03;15.27;;;8.70;99.90;;;;;;5070927;28;20301;-67
2023/04/07 02:46:01;;;;;;;25.33;16.60;;;8.70;99.90;;;;;;5070979;28;20220;-67
2023/04/07 02:48:27;;;;;;;22.77;15.53;;;8.70;99.90;;;;;;5071086;28;20174;-66
2023/04/07 02:50:52;;;;;;;22.67;13.60;;;8.70;99.90;;;;;;5071368;28;20257;-66
2023/04/07 02:53:18;;;;;;;26.90;16.13;;;8.70;99.90;;;;;;5071090;28;20626;-66
2023/04/07 02:55:44;;;;;;;27.73;15.97;;;8.70;99.90;;;;;;5071145;28;20277;-66
2023/04/07 02:58:10;;;;;;;21.73;14.73;;;8.70;99.90;;;;;;5072579;28;20631;-66
2023/04/07 03:00:35;;;;;;;26.37;16.27;;;8.70;99.90;;;;;;5073085;28;20228;-66
2023/04/07 03:03:01;;;;;;;26.03;16.27;;;8.70;99.90;;;;;;5073100;28;20678;-66
2023/04/07 03:05:27;;;;;;;25.27;16.60;;;8.70;99.90;;;;;;5074632;28;20194;-66
2023/04/07 03:07:52;;;;;;;27.20;14.73;;;8.70;99.90;;;;;;5074465;28;20536;-66
2023/04/07 03:10:18;;;;;;;22.13;13.17;;;8.70;99.90;;;;;;5074035;28;20182;-66
2023/04/07 03:12:43;;;;;;;18.90;13.77;;;8.70;99.90;;;;;;5074200;28;20704;-66
2023/04/07 03:15:09;;;;;;;21.60;14.97;;;8.70;99.90;;;;;;5074604;28;20174;-66
2023/04/07 03:17:35;;;;;;;24.27;14.20;;;8.70;99.90;;;;;;5074139;28;20201;-67
2023/04/07 03:20:00;;;;;;;26.77;15.63;;;8.70;99.90;;;;;;5074424;28;20174;-66
2023/04/07 03:22:26;;;;;;;21.40;15.53;;;8.70;99.90;;;;;;5074102;28;20181;-66
2023/04/07 03:24:52;;;;;;;21.97;16.10;;;8.70;99.90;;;;;;5074355;28;20202;-66
2023/04/07 03:27:19;;;;;;;28.03;15.63;;;8.70;99.90;;;;;;5074172;28;20190;-66
2023/04/07 03:29:45;;;;;;;20.60;12.87;;;8.60;99.90;;;;;;5072595;28;20593;-66
2023/04/07 03:32:11;;;;;;;21.83;14.17;;;8.60;99.90;;;;;;5074442;28;20253;-66
2023/04/07 03:34:37;;;;;;;20.70;14.10;;;8.50;99.90;;;;;;5072098;28;20265;-66
2023/04/07 03:37:02;;;;;;;28.47;16.17;;;8.50;99.90;;;;;;5073902;28;20212;-66
2023/04/07 03:39:28;;;;;;;22.30;13.67;;;8.50;99.90;;;;;;5073722;28;20249;-66
2023/04/07 03:41:53;;;;;;;24.67;13.40;;;8.50;99.90;;;;;;5073846;28;20655;-66
2023/04/07 03:44:19;;;;;;;19.67;13.90;;;8.40;99.90;;;;;;5073941;28;20198;-65
2023/04/07 03:46:46;;;;;;;16.77;12.73;;;8.40;99.90;;;;;;5073793;28;20206;-66
2023/04/07 03:49:13;;;;;;;18.43;14.50;;;8.40;99.90;;;;;;5073568;28;20211;-66
2023/04/07 03:51:38;;;;;;;25.00;14.13;;;8.40;99.90;;;;;;5073474;28;20172;-66
2023/04/07 03:54:04;;;;;;;30.63;16.43;;;8.40;99.90;;;;;;5073780;28;20167;-67
2023/04/07 03:56:30;;;;;;;24.77;14.67;;;8.30;99.90;;;;;;5073867;28;20200;-66
2023/04/07 03:58:56;;;;;;;22.07;14.27;;;8.30;99.90;;;;;;5073468;28;20633;-67
2023/04/07 04:01:22;;;;;;;25.87;14.73;;;8.30;99.90;;;;;;5073393;28;20194;-67
2023/04/07 04:03:48;;;;;;;29.17;15.77;;;8.30;99.90;;;;;;5073328;28;20189;-66
2023/04/07 04:06:14;;;;;;;22.23;14.03;;;8.30;99.90;;;;;;5073297;28;20198;-66
2023/04/07 04:08:39;;;;;;;22.37;13.67;;;8.30;99.90;;;;;;5072100;28;20650;-66
2023/04/07 04:11:05;;;;;;;41.00;17.20;;;8.30;99.90;;;;;;5073008;28;20226;-66
2023/04/07 04:13:31;;;;;;;27.50;15.27;;;8.30;99.90;;;;;;5073531;28;20177;-66
2023/04/07 04:15:56;;;;;;;30.47;14.93;;;8.40;99.90;;;;;;5072966;28;20765;-66
2023/04/07 04:18:22;;;;;;;23.27;15.60;;;8.40;99.90;;;;;;5073075;28;20570;-67
2023/04/07 04:20:48;;;;;;;27.63;16.27;;;8.30;99.90;;;;;;5071458;28;20178;-66
2023/04/07 04:23:14;;;;;;;28.70;16.37;;;8.30;99.90;;;;;;5073905;28;20173;-66
2023/04/07 04:25:40;;;;;;;23.47;13.93;;;8.30;99.90;;;;;;5071691;28;20214;-66
2023/04/07 04:28:06;;;;;;;23.47;14.73;;;8.30;99.90;;;;;;5072994;28;20189;-66
2023/04/07 04:30:32;;;;;;;21.90;13.90;;;8.30;99.90;;;;;;5072726;28;20594;-66
2023/04/07 04:32:57;;;;;;;20.50;13.43;;;8.30;99.90;;;;;;5072804;28;20182;-65
2023/04/07 04:35:23;;;;;;;19.37;14.03;;;8.30;99.90;;;;;;5072591;28;20175;-66
2023/04/07 04:37:49;;;;;;;21.13;13.50;;;8.30;99.90;;;;;;5072859;28;20178;-66
2023/04/07 04:40:14;;;;;;;25.70;13.27;;;8.20;99.90;;;;;;5071021;28;20699;-67
2023/04/07 04:42:40;;;;;;;19.27;13.63;;;8.20;99.90;;;;;;5072750;28;20577;-66
2023/04/07 04:45:06;;;;;;;19.00;12.53;;;8.10;99.90;;;;;;5072610;28;20202;-66
2023/04/07 04:47:32;;;;;;;23.37;12.97;;;8.10;99.90;;;;;;5072596;28;20205;-66
2023/04/07 04:49:58;;;;;;;18.30;12.37;;;8.10;99.90;;;;;;5072041;28;20539;-66
2023/04/07 04:52:23;;;;;;;15.43;10.70;;;8.10;99.90;;;;;;5072252;28;20813;-66
2023/04/07 04:54:49;;;;;;;16.07;11.40;;;8.00;99.90;;;;;;5072573;28;20182;-65
2023/04/07 04:57:15;;;;;;;15.07;9.93;;;8.00;99.90;;;;;;5072456;28;20198;-66
2023/04/07 04:59:41;;;;;;;20.57;11.57;;;8.00;99.90;;;;;;5072024;28;20182;-65
2023/04/07 05:02:07;;;;;;;16.77;10.80;;;8.00;99.90;;;;;;5072443;28;20181;-66
2023/04/07 05:04:32;;;;;;;16.80;12.83;;;8.00;99.90;;;;;;5072009;28;20178;-65
2023/04/07 05:06:58;;;;;;;15.40;11.40;;;8.00;99.90;;;;;;5072394;28;20556;-66
2023/04/07 05:09:24;;;;;;;15.50;10.83;;;8.00;99.90;;;;;;5071701;28;20235;-66
2023/04/07 05:11:49;;;;;;;11.23;9.70;;;8.00;99.90;;;;;;5072499;28;20179;-66
2023/04/07 05:14:15;;;;;;;15.77;10.93;;;8.00;99.90;;;;;;5072019;28;20670;-66
2023/04/07 05:16:40;;;;;;;11.37;8.30;;;8.00;99.90;;;;;;5072108;28;20197;-66
2023/04/07 05:19:06;;;;;;;17.70;11.87;;;8.00;99.90;;;;;;5072100;28;20216;-66
2023/04/07 05:21:32;;;;;;;15.73;10.50;;;8.00;99.90;;;;;;5070206;28;20188;-66
2023/04/07 05:23:57;;;;;;;17.30;10.20;;;8.00;99.90;;;;;;5071718;28;20272;-66
2023/04/07 05:26:23;;;;;;;14.90;10.67;;;8.00;99.90;;;;;;5070578;28;20255;-66
2023/04/07 05:28:48;;;;;;;17.93;9.70;;;8.00;99.90;;;;;;5069369;28;20185;-66
2023/04/07 05:31:14;;;;;;;13.83;9.13;;;8.00;99.90;;;;;;5071709;28;20185;-66
2023/04/07 05:33:39;;;;;;;10.33;9.10;;;8.10;99.90;;;;;;5071643;28;20227;-66
2023/04/07 05:36:05;;;;;;;17.00;10.37;;;8.00;99.90;;;;;;5071893;28;20237;-66
2023/04/07 05:38:31;;;;;;;15.23;10.40;;;8.00;99.90;;;;;;5070360;28;20186;-66
2023/04/07 05:40:57;;;;;;;17.03;9.70;;;8.00;99.90;;;;;;5071588;28;20700;-67
2023/04/07 05:43:22;;;;;;;15.50;8.90;;;8.10;99.90;;;;;;5071559;28;20696;-66
2023/04/07 05:45:48;;;;;;;14.30;8.93;;;8.10;99.90;;;;;;5071584;28;20256;-66
2023/04/07 05:48:13;;;;;;;12.23;9.83;;;8.00;99.90;;;;;;5071655;28;20260;-65
2023/04/07 05:50:39;;;;;;;13.27;9.67;;;8.10;99.90;;;;;;5071098;28;20176;-66
2023/04/07 05:53:05;;;;;;;14.80;9.80;;;8.00;99.90;;;;;;5071310;28;20194;-66
2023/04/07 05:55:30;;;;;;;8.77;7.90;;;8.10;99.90;;;;;;5071360;28;20178;-67
2023/04/07 05:57:56;;;;;;;13.80;8.67;;;8.10;99.90;;;;;;5070249;28;20264;-66
2023/04/07 06:00:22;;;;;;;12.20;8.97;;;8.10;99.90;;;;;;5068638;28;20182;-65
2023/04/07 06:02:48;;;;;;;11.53;8.53;;;8.20;99.90;;;;;;5071631;28;20186;-65
2023/04/07 06:05:13;;;;;;;11.77;8.27;;;8.20;99.90;;;;;;5071032;28;20201;-66
2023/04/07 06:07:39;;;;;;;8.13;7.40;;;8.20;99.90;;;;;;5071479;28;20243;-66
2023/04/07 06:10:05;;;;;;;7.47;6.77;;;8.20;99.90;;;;;;5070680;28;20194;-67
2023/04/07 06:12:31;;;;;;;10.40;7.70;;;8.10;99.90;;;;;;5069972;28;20235;-67
2023/04/07 06:14:57;;;;;;;11.57;7.83;;;8.20;99.90;;;;;;5071078;28;20584;-67
2023/04/07 06:17:23;;;;;;;8.17;7.57;;;8.20;99.90;;;;;;5071026;28;20276;-66
2023/04/07 06:19:49;;;;;;;7.33;6.83;;;8.20;99.90;;;;;;5070835;28;20270;-65
2023/04/07 06:22:15;;;;;;;11.10;7.43;;;8.10;99.90;;;;;;5071287;28;20262;-66
2023/04/07 06:24:40;;;;;;;7.57;7.00;;;8.10;99.90;;;;;;5071015;28;20186;-66
2023/04/07 06:27:07;;;;;;;8.60;7.70;;;8.10;99.90;;;;;;5071134;28;20555;-66
2023/04/07 06:29:33;;;;;;;13.23;8.13;;;8.20;99.90;;;;;;5070557;28;20184;-65
2023/04/07 06:31:59;;;;;;;7.63;6.83;;;8.20;99.90;;;;;;5070964;28;20174;-65
2023/04/07 06:34:25;;;;;;;7.77;7.17;;;8.20;99.90;;;;;;5074665;28;20261;-66
2023/04/07 06:36:51;;;;;;;8.10;7.30;;;8.20;99.90;;;;;;5075394;28;20269;-66
2023/04/07 06:39:16;;;;;;;6.87;6.30;;;8.20;99.90;;;;;;5074278;28;20182;-66
2023/04/07 06:41:42;;;;;;;7.83;6.60;;;8.20;99.90;;;;;;5075533;28;20253;-66
2023/04/07 06:44:11;;;;;;;9.53;7.37;;;8.20;99.90;;;;;;5073377;28;20182;-66
2023/04/07 06:46:36;;;;;;;7.87;7.07;;;8.20;99.90;;;;;;5075141;28;20324;-66
2023/04/07 06:49:02;;;;;;;10.33;7.30;;;8.20;99.90;;;;;;5074711;28;20277;-66
2023/04/07 06:51:28;;;;;;;8.37;7.57;;;8.20;99.90;;;;;;5074781;28;20166;-66
2023/04/07 06:53:54;;;;;;;11.70;7.73;;;8.20;99.90;;;;;;5074293;28;20178;-66
2023/04/07 06:56:22;;;;;;;8.17;7.50;;;8.30;99.90;;;;;;5074755;28;20190;-66
2023/04/07 06:58:49;;;;;;;8.23;7.43;;;8.30;99.90;;;;;;5074932;28;20636;-66
2023/04/07 07:01:15;;;;;;;9.13;8.27;;;8.40;99.90;;;;;;5074132;28;20720;-65
2023/04/07 07:03:41;;;;;;;12.70;8.73;;;8.40;99.90;;;;;;5073131;28;20265;-65
2023/04/07 07:06:06;;;;;;;18.30;11.40;;;8.40;99.90;;;;;;5072731;28;20604;-66
2023/04/07 07:08:32;;;;;;;12.97;9.33;;;8.40;99.90;;;;;;5074552;28;20652;-66
2023/04/07 07:10:58;;;;;;;9.50;8.23;;;8.50;99.90;;;;;;5072914;28;20727;-65
2023/04/07 07:13:25;;;;;;;10.13;8.83;;;8.50;99.90;;;;;;5076175;28;20174;-66
2023/04/07 07:15:51;;;;;;;7.60;7.00;;;8.50;99.90;;;;;;5061803;28;20228;-66
2023/04/07 07:18:18;;;;;;;10.70;9.23;;;8.50;99.90;;;;;;5073980;28;20178;-66
2023/04/07 07:20:43;;;;;;;9.03;8.13;;;8.50;99.90;;;;;;5073109;28;20178;-66
2023/04/07 07:23:09;;;;;;;8.97;7.33;;;8.60;99.90;;;;;;5074433;28;20193;-65
2023/04/07 07:25:35;;;;;;;8.43;7.13;;;8.60;99.90;;;;;;5073419;28;20663;-66
2023/04/07 07:28:00;;;;;;;8.63;7.87;;;8.70;99.90;;;;;;5073040;28;20219;-66
2023/04/07 07:30:26;;;;;;;9.53;8.57;;;8.70;99.90;;;;;;5073744;28;20189;-65
2023/04/07 07:32:53;;;;;;;9.73;8.80;;;8.70;99.90;;;;;;5075189;28;20327;-65
2023/04/07 07:35:19;;;;;;;9.80;8.47;;;8.80;99.90;;;;;;5073956;28;20543;-66
2023/04/07 07:37:45;;;;;;;8.57;7.83;;;8.90;99.90;;;;;;5073566;28;20210;-66
2023/04/07 07:40:11;;;;;;;9.67;8.40;;;8.90;99.90;;;;;;5073384;28;20205;-66
2023/04/07 07:42:37;;;;;;;9.90;8.30;;;8.90;99.90;;;;;;5073442;28;20186;-66
2023/04/07 07:45:03;;;;;;;10.20;8.27;;;8.90;99.90;;;;;;5073314;28;20218;-66
2023/04/07 07:47:29;;;;;;;11.67;8.00;;;8.90;99.90;;;;;;5073379;28;20210;-66
2023/04/07 07:49:55;;;;;;;14.40;8.53;;;9.00;99.90;;;;;;5072589;28;20670;-68
2023/04/07 07:52:20;;;;;;;7.83;7.20;;;9.00;99.90;;;;;;5072375;28;20206;-68
2023/04/07 07:54:47;;;;;;;9.23;8.37;;;9.10;99.90;;;;;;5073818;28;20173;-68
2023/04/07 07:57:13;;;;;;;8.73;7.83;;;9.20;99.90;;;;;;5072306;28;20209;-65
2023/04/07 07:59:39;;;;;;;8.63;7.83;;;9.20;99.90;;;;;;5073163;28;20174;-65
2023/04/07 08:02:06;;;;;;;13.97;8.00;;;9.20;99.90;;;;;;5073363;28;20644;-65
2023/04/07 08:04:31;;;;;;;8.10;7.30;;;9.30;99.90;;;;;;5071069;28;20364;-65
2023/04/07 08:06:57;;;;;;;8.57;7.73;;;9.40;99.90;;;;;;5073453;28;20256;-65
2023/04/07 08:09:23;;;;;;;12.40;7.97;;;9.50;99.90;;;;;;5062177;28;20561;-65
2023/04/07 08:11:48;;;;;;;9.60;7.00;;;9.60;99.90;;;;;;5053603;28;20179;-64
2023/04/07 08:14:14;;;;;;;8.53;7.70;;;9.60;99.90;;;;;;5072521;28;20594;-65
2023/04/07 08:16:40;;;;;;;8.40;7.60;;;9.50;99.90;;;;;;5072915;28;20194;-65
2023/04/07 08:19:06;;;;;;;8.90;8.13;;;9.50;99.90;;;;;;5072974;28;20231;-65
2023/04/07 08:21:31;;;;;;;8.60;7.80;;;9.60;99.90;;;;;;5072088;28;20194;-65
2023/04/07 08:23:57;;;;;;;10.93;8.23;;;9.60;99.90;;;;;;5072562;28;20236;-65
2023/04/07 08:26:23;;;;;;;10.00;7.70;;;9.80;99.90;;;;;;5072680;28;20233;-65
2023/04/07 08:28:52;;;;;;;7.50;6.77;;;9.90;99.90;;;;;;5072903;28;20189;-65
2023/04/07 08:31:18;;;;;;;9.17;8.37;;;10.00;99.90;;;;;;5072541;28;20166;-65
2023/04/07 08:33:44;;;;;;;8.13;7.33;;;10.00;99.90;;;;;;5073085;28;20227;-64
2023/04/07 08:36:10;;;;;;;13.83;8.23;;;10.00;99.90;;;;;;5072636;28;20607;-63
2023/04/07 08:38:35;;;;;;;8.03;7.20;;;10.20;99.90;;;;;;5070145;28;20269;-63
2023/04/07 08:41:11;;;;;;;10.60;7.50;;;10.30;99.90;;;;;;5072712;28;20223;-63
2023/04/07 08:43:38;;;;;;;8.50;7.60;;;10.30;99.90;;;;;;5054385;28;20184;-64
2023/04/07 08:46:04;;;;;;;9.50;8.13;;;10.30;99.90;;;;;;5072441;28;20214;-64
2023/04/07 08:48:34;;;;;;;11.33;8.70;;;10.30;99.90;;;;;;5072780;28;20198;-63
2023/04/07 08:51:05;;;;;;;17.70;10.63;;;10.40;99.90;;;;;;5072562;28;20186;-64
2023/04/07 08:53:36;;;;;;;9.20;8.27;;;10.50;99.90;;;;;;5072766;28;20643;-64
2023/04/07 08:56:05;;;;;;;14.97;10.90;;;10.60;99.90;;;;;;5071579;28;20292;-64
2023/04/07 08:58:30;;;;;;;8.13;7.37;;;10.80;99.90;;;;;;5070997;28;20208;-64
2023/04/07 09:00:56;;;;;;;11.37;7.87;;;10.90;99.90;;;;;;5072268;28;20178;-64
2023/04/07 09:03:25;;;;;;;8.50;7.77;;;10.80;99.90;;;;;;5075813;28;20186;-64
2023/04/07 09:05:51;;;;;;;8.77;7.43;;;10.70;99.90;;;;;;5072509;28;20236;-64
2023/04/07 09:08:16;;;;;;;8.13;7.33;;;10.50;99.90;;;;;;5072046;28;20178;-64
2023/04/07 09:10:42;;;;;;;8.30;7.50;;;10.30;99.90;;;;;;5069981;28;20202;-64
2023/04/07 09:13:07;;;;;;;11.40;8.50;;;10.30;99.90;;;;;;5067980;28;20189;-64
2023/04/07 09:15:33;;;;;;;11.27;8.70;;;10.30;99.90;;;;;;5072017;28;20249;-64
2023/04/07 09:17:59;;;;;;;8.60;7.77;;;10.40;99.90;;;;;;5072019;28;20223;-64
2023/04/07 09:20:25;;;;;;;8.87;6.90;;;10.60;99.90;;;;;;5071569;28;20182;-64
2023/04/07 09:22:51;;;;;;;8.43;7.73;;;10.70;99.90;;;;;;5071906;28;20660;-64
2023/04/07 09:25:26;;;;;;;6.80;6.20;;;10.70;99.90;;;;;;5071884;28;20198;-64
2023/04/07 09:28:03;;;;;;;7.17;6.50;;;10.70;99.90;;;;;;5072103;28;20182;-64
2023/04/07 09:30:30;;;;;;;9.53;7.60;;;10.40;99.90;;;;;;5071493;28;20522;-64
2023/04/07 09:32:57;;;;;;;8.93;8.03;;;10.40;99.90;;;;;;5071612;28;20663;-64
2023/04/07 09:35:23;;;;;;;9.00;7.30;;;10.40;99.90;;;;;;5071616;28;20540;-64
2023/04/07 09:38:00;;;;;;;14.43;8.33;;;10.30;99.90;;;;;;5071695;28;20563;-63
2023/04/07 09:40:26;;;;;;;8.33;7.50;;;10.20;99.90;;;;;;5071369;28;20185;-64
2023/04/07 09:42:52;;;;;;;8.67;7.77;;;10.10;99.90;;;;;;5070264;28;20182;-64
2023/04/07 09:45:24;;;;;;;8.90;8.10;;;10.00;99.90;;;;;;5071628;28;20237;-64
2023/04/07 09:47:50;;;;;;;13.53;12.03;;;9.90;99.90;;;;;;5071414;28;20241;-64
2023/04/07 09:50:31;;;;;;;11.73;10.73;;;9.70;99.90;;;;;;5071187;28;20645;-64
2023/04/07 09:52:56;;;;;;;9.97;9.03;;;9.50;99.90;;;;;;5071660;28;20210;-63
2023/04/07 09:55:23;;;;;;;9.70;8.73;;;9.50;99.90;;;;;;5071328;28;20259;-64
2023/04/07 09:57:54;;;;;;;10.93;8.93;;;9.50;99.90;;;;;;5070076;28;20232;-64
2023/04/07 10:00:20;;;;;;;8.73;7.77;;;9.40;99.90;;;;;;5055759;28;20175;-64
2023/04/07 10:02:46;;;;;;;9.90;9.00;;;9.50;99.90;;;;;;5051345;28;20177;-64
2023/04/07 10:05:12;;;;;;;10.30;9.20;;;9.40;99.90;;;;;;5051418;28;20244;-63
2023/04/07 10:07:39;;;;;;;10.93;8.23;;;9.50;99.90;;;;;;5062970;28;20705;-64
2023/04/07 10:10:07;;;;;;;11.97;9.43;;;9.40;99.90;;;;;;5057820;28;20657;-64
2023/04/07 10:12:35;;;;;;;10.27;9.27;;;9.40;99.90;;;;;;5071109;28;20532;-63
2023/04/07 10:15:01;;;;;;;11.97;9.17;;;9.40;99.90;;;;;;5071289;28;20188;-64
2023/04/07 10:17:27;;;;;;;10.60;9.13;;;9.40;99.90;;;;;;5070958;28;20210;-64
2023/04/07 10:19:57;;;;;;;11.97;10.30;;;9.40;99.90;;;;;;5070967;28;20190;-64
2023/04/07 10:22:23;;;;;;;11.27;9.10;;;9.30;99.90;;;;;;5070783;28;20185;-63
2023/04/07 10:25:11;;;;;;;11.67;9.87;;;9.30;99.90;;;;;;5071555;28;20285;-64
2023/04/07 10:27:48;;;;;;;10.53;9.23;;;9.30;99.90;;;;;;5070501;28;20205;-64
2023/04/07 10:30:25;;;;;;;12.83;9.13;;;9.30;99.90;;;;;;5070571;28;20223;-64
2023/04/07 10:32:53;;;;;;;11.77;9.17;;;9.50;99.90;;;;;;5070935;28;20628;-64
2023/04/07 10:35:19;;;;;;;9.30;8.13;;;9.60;99.90;;;;;;5071161;28;20197;-64
2023/04/07 10:38:12;;;;;;;11.53;9.43;;;9.80;99.90;;;;;;5070680;28;20205;-63
2023/04/07 10:40:39;;;;;;;12.30;9.50;;;10.00;99.90;;;;;;5068101;28;20193;-63
2023/04/07 10:43:09;;;;;;;13.37;9.07;;;10.10;99.90;;;;;;5069062;28;20236;-63
2023/04/07 10:45:47;;;;;;;19.67;11.20;;;10.20;99.90;;;;;;5070602;28;20205;-63
2023/04/07 10:48:14;;;;;;;14.77;10.23;;;10.30;99.90;;;;;;5070949;28;20185;-63
2023/04/07 10:50:41;;;;;;;14.37;9.80;;;10.40;99.90;;;;;;5068076;28;20178;-63
2023/04/07 10:53:09;;;;;;;10.93;9.70;;;10.50;99.90;;;;;;5070875;28;20511;-63
2023/04/07 10:55:36;;;;;;;16.53;9.80;;;10.40;99.90;;;;;;5070164;28;20182;-63
2023/04/07 10:58:14;;;;;;;8.63;7.83;;;10.40;99.90;;;;;;5070411;28;20186;-63
2023/04/07 11:00:40;;;;;;;13.83;9.93;;;10.30;99.90;;;;;;5049257;28;20195;-63
2023/04/07 11:03:12;;;;;;;15.03;10.73;;;10.30;99.90;;;;;;5063902;28;20181;-63
2023/04/07 11:05:39;;;;;;;13.47;9.30;;;10.30;99.90;;;;;;5069697;28;20209;-63
2023/04/07 11:08:06;;;;;;;13.90;9.40;;;10.30;99.90;;;;;;5070644;28;20181;-63
2023/04/07 11:10:35;;;;;;;9.50;8.03;;;10.40;99.90;;;;;;5070184;28;20736;-63
2023/04/07 11:13:06;;;;;;;10.30;8.67;;;10.50;99.90;;;;;;5070660;28;20220;-63
2023/04/07 11:15:33;;;;;;;20.83;12.77;;;10.70;99.90;;;;;;5067096;28;20182;-63
2023/04/07 11:18:22;;;;;;;13.97;10.37;;;11.00;99.90;;;;;;5070747;28;20231;-63
2023/04/07 11:20:51;;;;;;;14.83;10.73;;;11.30;99.90;;;;;;5074179;28;20522;-63
2023/04/07 11:23:18;;;;;;;9.63;8.60;;;11.70;99.90;;;;;;5074648;28;20189;-63
2023/04/07 11:25:46;;;;;;;10.63;9.53;;;12.00;99.90;;;;;;5074698;28;20252;-64
2023/04/07 11:28:12;;;;;;;11.63;10.10;;;12.30;99.90;;;;;;5073928;28;20186;-63
2023/04/07 11:30:43;;;;;;;13.07;10.07;;;12.30;99.90;;;;;;5071912;28;20205;-64
2023/04/07 11:33:13;;;;;;;13.20;10.83;;;12.30;99.90;;;;;;5072836;28;20189;-63
2023/04/07 11:35:56;;;;;;;14.30;8.30;;;12.30;99.90;;;;;;5073970;28;20186;-64
2023/04/07 11:38:44;;;;;;;8.97;8.07;;;12.60;99.90;;;;;;5073649;28;20181;-64
2023/04/07 11:41:14;;;;;;;8.77;7.97;;;12.90;99.90;;;;;;5074044;28;20175;-63
2023/04/07 11:43:40;;;;;;;9.47;8.33;;;13.10;44.50;;;;;;5073637;28;20186;-64
2023/04/07 11:46:10;;;;;;;12.97;8.03;;;13.00;45.70;;;;;;5073977;28;20202;-63
2023/04/07 11:48:38;;;;;;;8.63;7.40;;;12.80;31.30;;;;;;5071536;28;20190;-63
2023/04/07 11:51:04;;;;;;;8.33;7.50;;;12.60;48.00;;;;;;5072229;28;20316;-63
2023/04/07 11:53:36;;;;;;;9.03;8.00;;;12.60;84.30;;;;;;5073338;28;20182;-64
2023/04/07 11:56:15;;;;;;;10.20;6.93;;;12.60;84.60;;;;;;5073576;28;20220;-63
2023/04/07 11:58:52;;;;;;;6.70;6.10;;;12.50;74.80;;;;;;5073456;28;20189;-64
2023/04/07 12:01:19;;;;;;;7.03;6.47;;;12.40;66.10;;;;;;5073866;28;20635;-63
2023/04/07 12:04:02;;;;;;;7.17;6.67;;;12.40;79.60;;;;;;5073606;28;20325;-64
2023/04/07 12:06:34;;;;;;;7.50;6.80;;;12.40;92.50;;;;;;5073302;28;20710;-63
2023/04/07 12:09:01;;;;;;;8.47;7.60;;;12.40;72.70;;;;;;5072235;28;20204;-63
2023/04/07 12:11:26;;;;;;;11.67;8.33;;;12.30;99.50;;;;;;5073477;28;20635;-63
2023/04/07 12:13:53;;;;;;;10.20;6.67;;;12.20;93.00;;;;;;5073414;28;20185;-63
2023/04/07 12:16:19;;;;;;;12.20;7.67;;;12.10;93.30;;;;;;5073017;28;20291;-63
2023/04/07 12:18:45;;;;;;;9.17;8.23;;;11.90;99.90;;;;;;5073307;28;20174;-63
2023/04/07 12:21:11;;;;;;;8.37;7.67;;;11.70;99.90;;;;;;5073456;28;20181;-64
2023/04/07 12:23:37;;;;;;;8.87;7.90;;;11.60;99.90;;;;;;5073041;28;20567;-64
2023/04/07 12:26:02;;;;;;;8.17;7.37;;;11.50;99.90;;;;;;5071815;28;20213;-63
2023/04/07 12:28:28;;;;;;;9.30;7.40;;;11.50;99.90;;;;;;5072827;28;20186;-63
2023/04/07 12:30:54;;;;;;;8.57;7.70;;;11.40;99.90;;;;;;5072869;28;20178;-63
2023/04/07 12:33:20;;;;;;;9.87;8.10;;;11.30;99.90;;;;;;5072814;28;20174;-63
2023/04/07 12:35:46;;;;;;;10.40;9.43;;;11.20;99.90;;;;;;5072866;28;20244;-64
2023/04/07 12:38:12;;;;;;;10.07;9.03;;;11.10;99.90;;;;;;5072526;28;20185;-63
2023/04/07 12:40:38;;;;;;;9.50;8.57;;;11.00;99.90;;;;;;5072554;28;20200;-64
2023/04/07 12:43:05;;;;;;;9.33;8.43;;;11.10;99.90;;;;;;5072794;28;20243;-64
2023/04/07 12:45:31;;;;;;;9.47;8.53;;;11.20;99.90;;;;;;5072735;28;20202;-63